createdAt,value
2023-02-14T00:00:37.916Z,3.35
2023-02-14T00:03:39.247Z,2.55
2023-02-14T00:06:40.890Z,3.15
2023-02-14T00:09:42.236Z,4.22
2023-02-14T00:12:43.504Z,2.53
2023-02-14T00:15:44.940Z,3.33
2023-02-14T00:19:04.770Z,3.53
2023-02-14T00:22:06.189Z,2.78
2023-02-14T00:25:07.589Z,2.63
2023-02-14T00:28:08.905Z,3.63
2023-02-14T00:31:10.549Z,3.70
2023-02-14T00:34:12.497Z,2.95
2023-02-14T00:37:13.892Z,4.28
2023-02-14T00:40:15.184Z,3.28
2023-02-14T00:43:16.449Z,3.03
2023-02-14T00:46:18.129Z,3.53
2023-02-14T00:49:19.475Z,4.15
2023-02-14T00:52:20.763Z,3.22
2023-02-14T00:55:22.075Z,3.22
2023-02-14T00:58:23.361Z,3.25
2023-02-14T01:01:24.779Z,3.50
2023-02-14T01:04:26.187Z,2.95
2023-02-14T01:07:27.476Z,3.42
2023-02-14T01:10:28.803Z,3.33
2023-02-14T01:13:30.088Z,2.92
2023-02-14T01:16:31.442Z,3.22
2023-02-14T01:19:32.774Z,2.78
2023-02-14T01:22:37.775Z,3.70
2023-02-14T01:25:39.871Z,3.28
2023-02-14T01:28:41.259Z,3.22
2023-02-14T01:31:42.721Z,2.47
2023-02-14T01:34:44.120Z,3.17
2023-02-14T01:37:45.437Z,3.22
2023-02-14T01:40:46.670Z,3.63
2023-02-14T01:43:51.748Z,4.43
2023-02-14T01:46:53.053Z,3.05
2023-02-14T01:49:57.718Z,3.08
2023-02-14T01:53:02.040Z,2.88
2023-02-14T01:56:09.764Z,2.97
2023-02-14T01:59:12.657Z,3.75
2023-02-14T02:02:14.022Z,2.42
2023-02-14T02:05:16.238Z,3.17
2023-02-14T02:08:17.762Z,3.67
2023-02-14T02:11:19.033Z,2.67
2023-02-14T02:14:22.025Z,3.65
2023-02-14T02:17:23.236Z,3.55
2023-02-14T02:20:26.654Z,3.45
2023-02-14T02:23:51.122Z,2.65
2023-02-14T02:27:11.090Z,3.00
2023-02-14T02:30:36.411Z,2.80
2023-02-14T02:33:40.986Z,3.63
2023-02-14T02:36:47.937Z,3.95
2023-02-14T02:39:55.966Z,3.50
2023-02-14T02:43:16.354Z,3.20
2023-02-14T02:46:48.330Z,2.85
2023-02-14T02:50:19.156Z,3.45
2023-02-14T02:53:20.426Z,2.75
2023-02-14T02:56:45.558Z,3.05
2023-02-14T02:59:47.061Z,2.67
2023-02-14T03:03:08.254Z,3.03
2023-02-14T03:06:09.557Z,1.77
2023-02-14T03:09:33.890Z,4.22
2023-02-14T03:12:35.207Z,2.83
2023-02-14T03:15:45.842Z,2.60
2023-02-14T03:18:59.386Z,3.05
2023-02-14T03:22:05.221Z,3.85
2023-02-14T03:25:24.365Z,2.97
2023-02-14T03:28:43.837Z,2.47
2023-02-14T03:31:48.350Z,2.60
2023-02-14T03:34:49.719Z,3.08
2023-02-14T03:37:53.972Z,2.63
2023-02-14T03:40:58.145Z,2.75
2023-02-14T03:44:02.105Z,2.47
2023-02-14T03:47:12.663Z,3.08
2023-02-14T03:50:20.166Z,2.80
2023-02-14T03:53:23.665Z,3.10
2023-02-14T03:56:32.121Z,1.88
2023-02-14T03:59:33.656Z,2.30
2023-02-14T04:02:37.455Z,3.08
2023-02-14T04:05:43.438Z,2.88
2023-02-14T04:08:44.813Z,2.28
2023-02-14T04:11:46.746Z,3.72
2023-02-14T04:14:48.052Z,3.13
2023-02-14T04:18:08.065Z,2.80
2023-02-14T04:21:10.201Z,2.28
2023-02-14T04:24:11.451Z,3.55
2023-02-14T04:27:12.783Z,2.90
2023-02-14T04:30:14.845Z,2.83
2023-02-14T04:33:16.260Z,2.15
2023-02-14T04:36:17.486Z,3.15
2023-02-14T04:39:18.736Z,1.90
2023-02-14T04:42:20.019Z,2.80
2023-02-14T04:45:21.315Z,3.05
2023-02-14T04:48:22.599Z,3.72
2023-02-14T04:51:27.352Z,2.60
2023-02-14T04:54:29.077Z,3.70
2023-02-14T04:57:30.513Z,3.42
2023-02-14T05:00:31.869Z,3.03
2023-02-14T05:03:33.155Z,2.47
2023-02-14T05:06:34.450Z,3.10
2023-02-14T05:09:35.742Z,2.80
2023-02-14T05:12:37.016Z,2.50
2023-02-14T05:15:38.711Z,3.22
2023-02-14T05:18:40.055Z,2.45
2023-02-14T05:21:41.330Z,3.40
2023-02-14T05:24:42.596Z,2.42
2023-02-14T05:27:43.872Z,3.33
2023-02-14T05:30:45.563Z,4.00
2023-02-14T05:33:46.872Z,2.50
2023-02-14T05:36:48.292Z,3.75
2023-02-14T05:39:49.544Z,4.10
2023-02-14T05:42:51.922Z,2.58
2023-02-14T05:45:54.405Z,3.10
2023-02-14T05:48:55.705Z,2.95
2023-02-14T05:51:56.974Z,2.83
2023-02-14T05:54:58.252Z,3.45
2023-02-14T05:57:59.529Z,3.95
2023-02-14T06:01:01.624Z,3.83
2023-02-14T06:04:03.243Z,6.72
2023-02-14T06:07:04.581Z,3.60
2023-02-14T06:10:09.718Z,3.83
2023-02-14T06:13:11.879Z,4.05
2023-02-14T06:16:13.154Z,4.60
2023-02-14T06:19:16.009Z,4.10
2023-02-14T06:22:17.306Z,3.13
2023-02-14T06:25:18.982Z,4.95
2023-02-14T06:28:20.383Z,4.05
2023-02-14T06:31:22.055Z,4.53
2023-02-14T06:34:23.326Z,4.85
2023-02-14T06:37:24.695Z,5.70
2023-02-14T06:40:25.974Z,4.57
2023-02-14T06:43:27.254Z,4.90
2023-02-14T06:46:28.478Z,3.35
2023-02-14T06:49:29.773Z,5.75
2023-02-14T06:52:31.882Z,4.45
2023-02-14T06:55:33.118Z,5.85
2023-02-14T06:58:34.577Z,4.30
2023-02-14T07:01:35.874Z,4.85
2023-02-14T07:04:37.212Z,4.97
2023-02-14T07:07:38.485Z,5.38
2023-02-14T07:10:39.836Z,4.90
2023-02-14T07:13:41.137Z,6.78
2023-02-14T07:16:42.476Z,5.28
2023-02-14T07:19:43.715Z,5.38
2023-02-14T07:22:45.229Z,5.72
2023-02-14T07:25:46.544Z,4.93
2023-02-14T07:28:51.648Z,5.50
2023-02-14T07:34:54.296Z,5.20
2023-02-14T07:37:55.685Z,4.63
2023-02-14T07:40:57.119Z,5.72
2023-02-14T07:43:58.539Z,5.28
2023-02-14T07:46:59.823Z,6.45
2023-02-14T07:50:01.078Z,6.72
2023-02-14T07:53:02.484Z,7.25
2023-02-14T07:56:03.870Z,8.70
2023-02-14T07:59:05.209Z,10.13
2023-02-14T08:02:06.507Z,6.90
2023-02-14T08:05:07.974Z,7.55
2023-02-14T08:08:09.312Z,7.57
2023-02-14T08:11:10.795Z,7.13
2023-02-14T08:14:12.072Z,9.13
2023-02-14T08:17:13.858Z,7.03
2023-02-14T08:20:15.200Z,6.65
2023-02-14T08:23:17.370Z,6.63
2023-02-14T08:26:18.667Z,6.10
2023-02-14T08:29:19.916Z,7.45
2023-02-14T08:32:21.356Z,6.55
2023-02-14T08:35:25.046Z,7.93
2023-02-14T08:38:27.305Z,5.35
2023-02-14T08:41:28.692Z,6.75
2023-02-14T08:44:29.970Z,6.57
2023-02-14T08:47:35.632Z,7.00
2023-02-14T08:50:37.530Z,6.93
2023-02-14T08:53:39.464Z,6.53
2023-02-14T08:56:40.692Z,6.82
2023-02-14T08:59:41.942Z,8.25
2023-02-14T09:02:43.197Z,4.70
2023-02-14T09:05:44.461Z,5.28
2023-02-14T09:08:46.498Z,6.20
2023-02-14T09:11:47.919Z,4.35
2023-02-14T09:14:49.257Z,5.13
2023-02-14T09:17:51.047Z,6.22
2023-02-14T09:20:52.357Z,5.45
2023-02-14T09:23:53.982Z,4.93
2023-02-14T09:26:57.368Z,4.93
2023-02-14T09:29:59.033Z,5.13
2023-02-14T09:33:00.389Z,5.82
2023-02-14T09:36:19.690Z,5.15
2023-02-14T09:39:20.970Z,7.32
2023-02-14T09:42:22.234Z,7.20
2023-02-14T09:45:27.341Z,6.18
2023-02-14T09:48:33.841Z,5.10
2023-02-14T09:51:35.712Z,6.03
2023-02-14T09:54:37.197Z,6.18
2023-02-14T09:57:46.584Z,5.10
2023-02-14T10:00:53.784Z,7.88
2023-02-14T10:04:07.456Z,5.30
2023-02-14T10:07:32.053Z,5.50
2023-02-14T10:13:40.752Z,5.70
2023-02-14T10:16:42.065Z,5.72
2023-02-14T10:19:53.567Z,7.25
2023-02-14T10:22:57.527Z,6.63
2023-02-14T10:26:07.746Z,6.82
2023-02-14T10:29:12.511Z,6.68
2023-02-14T10:35:33.442Z,4.53
2023-02-14T10:38:42.551Z,5.75
2023-02-14T10:41:57.429Z,6.85
2023-02-14T10:45:17.052Z,6.05
2023-02-14T10:48:37.023Z,6.72
2023-02-14T10:51:46.672Z,7.18
2023-02-14T10:55:12.454Z,4.05
2023-02-14T10:58:17.983Z,3.90
2023-02-14T11:01:19.415Z,7.13
2023-02-14T11:04:22.003Z,6.22
2023-02-14T11:07:23.852Z,5.82
2023-02-14T11:10:27.484Z,6.78
2023-02-14T11:13:30.858Z,7.70
2023-02-14T11:16:33.232Z,5.47
2023-02-14T11:19:37.195Z,6.68
2023-02-14T11:22:38.838Z,5.97
2023-02-14T11:25:40.164Z,6.13
2023-02-14T11:28:50.367Z,6.18
2023-02-14T11:31:51.926Z,6.30
2023-02-14T11:34:57.283Z,6.82
2023-02-14T11:37:58.645Z,6.03
2023-02-14T11:41:00.429Z,5.53
2023-02-14T11:44:12.052Z,7.60
2023-02-14T11:50:21.718Z,5.38
2023-02-14T11:53:27.626Z,6.38
2023-02-14T11:56:49.553Z,7.10
2023-02-14T11:59:53.287Z,6.60
2023-02-14T12:02:55.525Z,5.47
2023-02-14T12:06:02.018Z,6.97
2023-02-14T12:09:26.286Z,6.72
2023-02-14T12:12:27.626Z,6.38
2023-02-14T12:15:36.403Z,5.82
2023-02-14T12:18:58.066Z,5.78
2023-02-14T12:22:06.665Z,7.65
2023-02-14T12:25:37.804Z,6.47
2023-02-14T12:28:42.782Z,5.32
2023-02-14T12:31:44.943Z,8.00
2023-02-14T12:34:46.473Z,6.40
2023-02-14T12:37:50.802Z,5.93
2023-02-14T12:41:05.182Z,6.63
2023-02-14T12:44:12.531Z,5.88
2023-02-14T12:47:37.855Z,6.18
2023-02-14T12:50:51.381Z,6.45
2023-02-14T12:53:58.548Z,6.13
2023-02-14T12:57:18.621Z,6.03
2023-02-14T13:00:35.561Z,5.55
2023-02-14T13:03:39.694Z,5.55
2023-02-14T13:06:45.689Z,5.85
2023-02-14T13:09:54.225Z,6.80
2023-02-14T13:13:14.081Z,6.47
2023-02-14T13:16:21.369Z,5.93
2023-02-14T13:19:28.793Z,7.05
2023-02-14T13:22:31.113Z,5.63
2023-02-14T13:25:36.074Z,7.10
2023-02-14T13:28:38.384Z,6.63
2023-02-14T13:31:40.613Z,6.68
2023-02-14T13:34:44.042Z,6.43
2023-02-14T13:37:52.144Z,6.25
2023-02-14T13:40:57.596Z,5.72
2023-02-14T13:44:02.497Z,6.38
2023-02-14T13:50:05.430Z,4.57
2023-02-14T13:53:13.246Z,5.53
2023-02-14T13:56:17.440Z,5.13
2023-02-14T13:59:26.913Z,6.50
2023-02-14T14:02:30.103Z,6.25
2023-02-14T14:05:38.159Z,5.82
2023-02-14T14:08:43.724Z,4.93
2023-02-14T14:11:49.140Z,6.68
2023-02-14T14:15:05.887Z,6.13
2023-02-14T14:18:13.259Z,5.60
2023-02-14T14:21:25.236Z,5.43
2023-02-14T14:24:28.866Z,6.55
2023-02-14T14:27:34.640Z,5.57
2023-02-14T14:30:36.211Z,6.05
2023-02-14T14:33:37.769Z,5.68
2023-02-14T14:36:39.139Z,6.07
2023-02-14T14:39:40.430Z,5.32
2023-02-14T14:42:42.899Z,5.75
2023-02-14T14:45:48.676Z,6.28
2023-02-14T14:48:51.412Z,7.03
2023-02-14T14:51:52.807Z,5.07
2023-02-14T14:54:54.224Z,6.40
2023-02-14T14:57:56.849Z,6.60
2023-02-14T15:00:58.244Z,5.30
2023-02-14T15:04:12.475Z,5.72
2023-02-14T15:07:33.841Z,5.43
2023-02-14T15:10:35.169Z,7.30
2023-02-14T15:13:54.863Z,6.25
2023-02-14T15:16:59.153Z,5.88
2023-02-14T15:20:02.943Z,6.55
2023-02-14T15:23:04.722Z,7.57
2023-02-14T15:26:06.173Z,7.30
2023-02-14T15:29:07.507Z,6.97
2023-02-14T15:32:09.379Z,6.30
2023-02-14T15:35:11.389Z,4.22
2023-02-14T15:38:13.879Z,6.65
2023-02-14T15:41:16.584Z,6.00
2023-02-14T15:44:22.091Z,6.45
2023-02-14T15:47:23.494Z,5.95
2023-02-14T15:50:27.810Z,6.30
2023-02-14T15:53:32.395Z,7.38
2023-02-14T15:56:35.912Z,5.25
2023-02-14T15:59:41.232Z,7.53
2023-02-14T16:02:43.435Z,7.82
2023-02-14T16:05:48.116Z,8.52
2023-02-14T16:08:54.069Z,5.47
2023-02-14T16:11:55.471Z,5.60
2023-02-14T16:15:15.399Z,6.47
2023-02-14T16:18:17.904Z,5.53
2023-02-14T16:21:19.266Z,6.45
2023-02-14T16:24:20.577Z,6.43
2023-02-14T16:27:21.831Z,5.75
2023-02-14T16:30:23.728Z,5.82
2023-02-14T16:33:26.512Z,6.90
2023-02-14T16:36:28.983Z,7.65
2023-02-14T16:39:31.822Z,6.57
2023-02-14T16:42:33.159Z,6.32
2023-02-14T16:45:34.468Z,7.72
2023-02-14T16:48:35.798Z,8.18
2023-02-14T16:51:37.332Z,7.28
2023-02-14T16:54:38.633Z,5.72
2023-02-14T16:57:41.300Z,10.80
2023-02-14T17:00:42.595Z,8.80
2023-02-14T17:03:44.602Z,8.05
2023-02-14T17:06:49.482Z,5.40
2023-02-14T17:09:54.013Z,6.85
2023-02-14T17:12:57.231Z,5.75
2023-02-14T17:15:58.539Z,4.32
2023-02-14T17:19:02.017Z,5.45
2023-02-14T17:22:04.503Z,7.82
2023-02-14T17:25:05.956Z,6.53
2023-02-14T17:28:07.319Z,5.68
2023-02-14T17:31:08.920Z,6.15
2023-02-14T17:34:10.886Z,5.28
2023-02-14T17:37:12.151Z,5.47
2023-02-14T17:40:14.959Z,5.82
2023-02-14T17:43:16.285Z,5.22
2023-02-14T17:46:20.332Z,7.63
2023-02-14T17:49:21.620Z,7.50
2023-02-14T17:52:24.137Z,6.82
2023-02-14T17:55:25.484Z,8.15
2023-02-14T17:58:26.728Z,7.57
2023-02-14T18:01:31.344Z,6.97
2023-02-14T18:04:34.847Z,6.70
2023-02-14T18:07:36.899Z,6.80
2023-02-14T18:10:38.197Z,5.43
2023-02-14T18:13:39.913Z,7.35
2023-02-14T18:16:41.239Z,6.07
2023-02-14T18:19:42.573Z,6.65
2023-02-14T18:22:43.885Z,6.32
2023-02-14T18:25:48.821Z,5.75
2023-02-14T18:31:52.521Z,6.38
2023-02-14T18:34:54.071Z,5.32
2023-02-14T18:37:55.393Z,7.95
2023-02-14T18:41:01.578Z,7.35
2023-02-14T18:44:03.248Z,6.95
2023-02-14T18:47:06.368Z,6.07
2023-02-14T18:50:07.813Z,5.78
2023-02-14T18:53:09.122Z,6.03
2023-02-14T18:56:21.077Z,7.43
2023-02-14T18:59:22.438Z,8.13
2023-02-14T19:02:23.754Z,8.90
2023-02-14T19:05:26.120Z,7.72
2023-02-14T19:08:29.919Z,4.40
2023-02-14T19:11:31.793Z,5.07
2023-02-14T19:14:33.084Z,6.25
2023-02-14T19:17:34.686Z,7.57
2023-02-14T19:20:35.995Z,6.85
2023-02-14T19:23:37.491Z,7.07
2023-02-14T19:26:40.302Z,7.03
2023-02-14T19:29:42.057Z,7.90
2023-02-14T19:32:43.379Z,7.38
2023-02-14T19:35:44.769Z,7.20
2023-02-14T19:38:48.100Z,5.28
2023-02-14T19:41:49.919Z,6.45
2023-02-14T19:44:52.234Z,7.28
2023-02-14T19:47:53.564Z,5.95
2023-02-14T19:50:54.906Z,6.95
2023-02-14T19:53:57.179Z,5.70
2023-02-14T19:56:58.572Z,6.68
2023-02-14T19:59:59.914Z,6.53
2023-02-14T20:03:01.666Z,6.05
2023-02-14T20:06:02.948Z,5.93
2023-02-14T20:09:04.909Z,5.15
2023-02-14T20:12:06.531Z,5.63
2023-02-14T20:15:10.845Z,6.13
2023-02-14T20:18:12.356Z,8.73
2023-02-14T20:21:18.159Z,6.10
2023-02-14T20:24:20.856Z,4.47
2023-02-14T20:27:24.582Z,4.88
2023-02-14T20:30:25.902Z,6.63
2023-02-14T20:33:27.166Z,7.15
2023-02-14T20:36:28.579Z,6.80
2023-02-14T20:39:34.356Z,7.65
2023-02-14T20:42:35.691Z,8.15
2023-02-14T20:45:38.014Z,5.80
2023-02-14T20:48:39.376Z,6.00
2023-02-14T20:51:40.808Z,5.45
2023-02-14T20:54:42.198Z,5.22
2023-02-14T20:57:43.543Z,4.32
2023-02-14T21:00:44.978Z,5.63
2023-02-14T21:03:47.359Z,6.68
2023-02-14T21:06:49.070Z,4.32
2023-02-14T21:09:50.384Z,3.85
2023-02-14T21:12:53.630Z,5.20
2023-02-14T21:15:54.996Z,5.75
2023-02-14T21:18:59.012Z,4.93
2023-02-14T21:22:00.539Z,6.90
2023-02-14T21:25:01.866Z,6.57
2023-02-14T21:28:03.286Z,4.30
2023-02-14T21:31:05.438Z,5.10
2023-02-14T21:34:06.926Z,6.22
2023-02-14T21:37:08.200Z,5.15
2023-02-14T21:40:09.629Z,3.83
2023-02-14T21:43:10.902Z,5.70
2023-02-14T21:46:14.372Z,5.10
2023-02-14T21:49:34.225Z,6.53
2023-02-14T21:52:35.541Z,5.00
2023-02-14T21:55:38.467Z,7.25
2023-02-14T21:58:40.215Z,5.93
2023-02-14T22:01:42.343Z,6.28
2023-02-14T22:04:45.481Z,5.32
2023-02-14T22:07:46.749Z,5.50
2023-02-14T22:10:48.095Z,6.50
2023-02-14T22:13:49.710Z,4.68
2023-02-14T22:16:51.043Z,5.13
2023-02-14T22:19:52.318Z,5.80
2023-02-14T22:22:53.608Z,4.88
2023-02-14T22:25:54.903Z,3.80
2023-02-14T22:28:57.259Z,5.40
2023-02-14T22:31:58.707Z,3.25
2023-02-14T22:35:00.085Z,5.60
2023-02-14T22:38:01.370Z,4.28
2023-02-14T22:41:21.622Z,5.68
2023-02-14T22:44:22.943Z,3.55
2023-02-14T22:47:24.315Z,5.40
2023-02-14T22:50:25.569Z,5.65
2023-02-14T22:53:26.864Z,4.80
2023-02-14T22:56:34.125Z,3.47
2023-02-14T22:59:35.467Z,4.65
2023-02-14T23:02:37.089Z,5.43
2023-02-14T23:05:38.367Z,4.90
2023-02-14T23:08:40.692Z,4.95
2023-02-14T23:11:43.233Z,3.22
2023-02-14T23:15:03.404Z,4.72
2023-02-14T23:18:23.684Z,4.15
2023-02-14T23:21:43.784Z,2.70
2023-02-14T23:24:45.201Z,4.78
2023-02-14T23:27:47.493Z,4.55
2023-02-14T23:30:48.729Z,3.90
2023-02-14T23:33:51.922Z,5.05
2023-02-14T23:36:53.259Z,4.10
2023-02-14T23:39:54.532Z,3.85
2023-02-14T23:42:55.817Z,3.17
2023-02-14T23:45:59.394Z,4.15
2023-02-14T23:49:00.890Z,4.25
2023-02-14T23:52:02.606Z,3.88
2023-02-14T23:55:04.022Z,3.83
2023-02-14T23:58:05.661Z,4.20
